createdAt,value
2018-05-05T00:00:27.919Z,0.00
2018-05-05T00:01:27.879Z,0.00
2018-05-05T00:02:27.849Z,0.00
2018-05-05T00:03:27.763Z,0.00
2018-05-05T00:04:27.764Z,0.00
2018-05-05T00:05:27.690Z,0.00
2018-05-05T00:06:27.665Z,0.00
2018-05-05T00:07:27.608Z,0.00
2018-05-05T00:08:27.604Z,0.00
2018-05-05T00:09:27.526Z,0.00
2018-05-05T00:10:27.504Z,0.00
2018-05-05T00:11:27.466Z,0.00
2018-05-05T00:12:27.416Z,0.00
2018-05-05T00:13:27.347Z,0.00
2018-05-05T00:14:27.306Z,0.00
2018-05-05T00:15:27.273Z,0.00
2018-05-05T00:16:27.230Z,0.00
2018-05-05T00:17:27.190Z,0.00
2018-05-05T00:18:27.675Z,0.00
2018-05-05T00:19:27.095Z,0.00
2018-05-05T00:20:27.058Z,0.00
2018-05-05T00:21:26.988Z,0.00
2018-05-05T00:22:26.963Z,0.00
2018-05-05T00:23:26.915Z,0.00
2018-05-05T00:24:26.857Z,0.00
2018-05-05T00:25:26.863Z,0.00
2018-05-05T00:26:26.795Z,0.00
2018-05-05T00:27:26.763Z,0.00
2018-05-05T00:28:26.702Z,0.00
2018-05-05T00:29:26.670Z,0.00
2018-05-05T00:30:26.622Z,0.00
2018-05-05T00:31:26.595Z,0.00
2018-05-05T00:32:26.538Z,0.00
2018-05-05T00:33:26.512Z,0.00
2018-05-05T00:34:26.451Z,0.00
2018-05-05T00:35:26.420Z,0.00
2018-05-05T00:36:26.345Z,0.00
2018-05-05T00:37:26.308Z,0.00
2018-05-05T00:38:26.294Z,0.00
2018-05-05T00:39:26.223Z,0.00
2018-05-05T00:40:26.164Z,0.00
2018-05-05T00:41:26.132Z,0.00
2018-05-05T00:42:26.092Z,0.00
2018-05-05T00:43:26.074Z,0.00
2018-05-05T00:44:25.991Z,0.00
2018-05-05T00:45:25.956Z,0.00
2018-05-05T00:46:25.922Z,0.00
2018-05-05T00:47:25.898Z,0.00
2018-05-05T00:48:25.845Z,0.00
2018-05-05T00:49:25.808Z,0.00
2018-05-05T00:50:25.745Z,0.00
2018-05-05T00:51:25.690Z,0.00
2018-05-05T00:52:25.659Z,0.00
2018-05-05T00:53:25.648Z,0.00
2018-05-05T00:54:25.587Z,0.00
2018-05-05T00:55:25.531Z,0.00
2018-05-05T00:56:25.485Z,0.00
2018-05-05T00:57:25.465Z,0.00
2018-05-05T00:58:25.397Z,0.00
2018-05-05T00:59:25.369Z,0.00
2018-05-05T01:00:25.326Z,0.00
2018-05-05T01:01:25.269Z,0.00
2018-05-05T01:02:25.238Z,0.00
2018-05-05T01:03:25.164Z,0.00
2018-05-05T01:04:25.140Z,0.00
2018-05-05T01:05:25.099Z,0.00
2018-05-05T01:06:25.087Z,0.00
2018-05-05T01:07:25.011Z,0.00
2018-05-05T01:08:24.988Z,0.00
2018-05-05T01:09:24.924Z,0.00
2018-05-05T01:10:24.894Z,0.00
2018-05-05T01:11:24.848Z,0.00
2018-05-05T01:12:24.780Z,0.00
2018-05-05T01:13:24.743Z,0.00
2018-05-05T01:14:24.708Z,0.00
2018-05-05T01:15:24.648Z,0.00
2018-05-05T01:16:24.612Z,0.00
2018-05-05T01:17:24.604Z,0.00
2018-05-05T01:18:24.542Z,0.00
2018-05-05T01:19:24.487Z,0.00
2018-05-05T01:20:24.442Z,0.00
2018-05-05T01:21:24.400Z,0.00
2018-05-05T01:22:24.370Z,0.00
2018-05-05T01:23:24.303Z,0.00
2018-05-05T01:24:24.274Z,0.00
2018-05-05T01:25:24.256Z,0.00
2018-05-05T01:26:24.182Z,0.00
2018-05-05T01:27:24.131Z,0.00
2018-05-05T01:28:24.114Z,0.00
2018-05-05T01:29:24.084Z,0.00
2018-05-05T01:30:24.028Z,0.00
2018-05-05T01:31:23.976Z,0.00
2018-05-05T01:32:23.939Z,0.00
2018-05-05T01:33:23.906Z,0.00
2018-05-05T01:34:23.843Z,0.00
2018-05-05T01:35:23.782Z,0.00
2018-05-05T01:36:23.765Z,0.00
2018-05-05T01:37:23.708Z,0.00
2018-05-05T01:38:23.663Z,0.00
2018-05-05T01:39:23.614Z,0.00
2018-05-05T01:40:23.590Z,0.00
2018-05-05T01:41:23.548Z,0.00
2018-05-05T01:42:23.494Z,0.00
2018-05-05T01:43:23.459Z,0.00
2018-05-05T01:44:23.403Z,0.00
2018-05-05T01:45:23.394Z,0.00
2018-05-05T01:46:23.329Z,0.00
2018-05-05T01:47:23.273Z,0.00
2018-05-05T01:48:23.248Z,0.00
2018-05-05T01:49:23.202Z,0.00
2018-05-05T01:50:23.160Z,0.00
2018-05-05T01:51:23.085Z,0.00
2018-05-05T01:52:23.063Z,0.00
2018-05-05T01:53:23.009Z,0.00
2018-05-05T01:54:22.960Z,0.00
2018-05-05T01:55:22.917Z,0.00
2018-05-05T01:56:22.887Z,0.00
2018-05-05T01:57:22.885Z,0.00
2018-05-05T01:58:22.783Z,0.00
2018-05-05T01:59:22.759Z,0.00
2018-05-05T02:00:22.700Z,0.00
2018-05-05T02:01:22.656Z,0.00
2018-05-05T02:02:22.624Z,0.00
2018-05-05T02:03:22.594Z,0.00
2018-05-05T02:04:22.544Z,0.00
2018-05-05T02:05:22.482Z,0.00
2018-05-05T02:06:22.443Z,0.00
2018-05-05T02:07:22.422Z,0.00
2018-05-05T02:08:22.360Z,0.00
2018-05-05T02:09:22.332Z,0.00
2018-05-05T02:10:22.279Z,0.00
2018-05-05T02:11:22.220Z,0.00
2018-05-05T02:12:22.192Z,0.00
2018-05-05T02:13:22.159Z,0.00
2018-05-05T02:14:22.117Z,0.00
2018-05-05T02:15:22.088Z,0.00
2018-05-05T02:16:22.015Z,0.00
2018-05-05T02:17:21.972Z,0.00
2018-05-05T02:18:21.930Z,0.00
2018-05-05T02:19:21.886Z,0.00
2018-05-05T02:20:21.870Z,0.00
2018-05-05T02:21:21.811Z,0.00
2018-05-05T02:22:21.754Z,0.00
2018-05-05T02:23:21.706Z,0.00
2018-05-05T02:24:21.691Z,0.00
2018-05-05T02:25:21.651Z,0.00
2018-05-05T02:26:21.579Z,0.00
2018-05-05T02:27:21.545Z,0.00
2018-05-05T02:28:21.509Z,0.00
2018-05-05T02:29:21.456Z,0.00
2018-05-05T02:30:21.417Z,0.00
2018-05-05T02:31:21.365Z,0.00
2018-05-05T02:32:21.320Z,0.00
2018-05-05T02:33:21.284Z,0.00
2018-05-05T02:34:21.236Z,0.00
2018-05-05T02:35:21.200Z,0.00
2018-05-05T02:36:21.133Z,0.00
2018-05-05T02:37:21.102Z,0.00
2018-05-05T02:38:21.087Z,0.00
2018-05-05T02:39:21.042Z,0.00
2018-05-05T02:40:20.984Z,0.00
2018-05-05T02:41:20.936Z,0.00
2018-05-05T02:42:20.866Z,0.00
2018-05-05T02:43:20.840Z,0.00
2018-05-05T02:44:20.784Z,0.00
2018-05-05T02:45:20.779Z,0.00
2018-05-05T02:46:20.711Z,0.00
2018-05-05T02:47:20.682Z,0.00
2018-05-05T02:48:20.640Z,0.00
2018-05-05T02:49:20.568Z,0.00
2018-05-05T02:50:20.541Z,0.00
2018-05-05T02:51:20.488Z,0.00
2018-05-05T02:52:20.451Z,0.00
2018-05-05T02:53:20.431Z,0.00
2018-05-05T02:54:20.356Z,0.00
2018-05-05T02:55:20.315Z,0.00
2018-05-05T02:56:20.276Z,0.00
2018-05-05T02:57:20.216Z,0.00
2018-05-05T02:58:20.219Z,0.00
2018-05-05T02:59:20.159Z,0.00
2018-05-05T03:00:20.088Z,0.00
2018-05-05T03:01:20.050Z,0.00
2018-05-05T03:02:20.027Z,0.00
2018-05-05T03:03:19.978Z,0.00
2018-05-05T03:04:19.962Z,0.00
2018-05-05T03:05:19.888Z,0.00
2018-05-05T03:06:19.855Z,0.00
2018-05-05T03:07:19.822Z,0.00
2018-05-05T03:08:19.750Z,0.00
2018-05-05T03:09:19.712Z,0.00
2018-05-05T03:10:19.673Z,0.00
2018-05-05T03:11:19.635Z,0.00
2018-05-05T03:12:19.590Z,0.00
2018-05-05T03:13:19.537Z,0.00
2018-05-05T03:14:19.487Z,0.00
2018-05-05T03:15:19.445Z,0.00
2018-05-05T03:16:19.443Z,0.00
2018-05-05T03:17:19.353Z,0.00
2018-05-05T03:18:19.312Z,0.00
2018-05-05T03:19:19.267Z,0.00
2018-05-05T03:20:19.232Z,0.00
2018-05-05T03:21:19.197Z,0.00
2018-05-05T03:22:19.131Z,0.00
2018-05-05T03:23:19.079Z,0.00
2018-05-05T03:24:19.059Z,0.00
2018-05-05T03:25:19.003Z,0.00
2018-05-05T03:26:18.965Z,0.00
2018-05-05T03:27:18.946Z,0.00
2018-05-05T03:28:18.867Z,0.00
2018-05-05T03:29:18.816Z,0.00
2018-05-05T03:30:18.788Z,0.00
2018-05-05T03:31:18.738Z,0.00
2018-05-05T03:32:18.718Z,0.00
2018-05-05T03:33:18.654Z,0.00
2018-05-05T03:34:18.639Z,0.00
2018-05-05T03:35:18.567Z,0.00
2018-05-05T03:36:18.534Z,0.00
2018-05-05T03:37:18.487Z,0.00
2018-05-05T03:38:18.446Z,0.00
2018-05-05T03:39:18.414Z,0.00
2018-05-05T03:40:18.363Z,0.00
2018-05-05T03:41:18.303Z,0.00
2018-05-05T03:42:18.279Z,0.00
2018-05-05T03:43:18.244Z,0.00
2018-05-05T03:44:18.171Z,0.00
2018-05-05T03:45:18.160Z,0.00
2018-05-05T03:46:18.107Z,0.00
2018-05-05T03:47:18.041Z,0.00
2018-05-05T03:48:17.996Z,0.00
2018-05-05T03:49:17.984Z,0.00
2018-05-05T03:50:17.918Z,0.00
2018-05-05T03:51:17.858Z,0.00
2018-05-05T03:52:17.838Z,0.00
2018-05-05T03:53:17.770Z,0.00
2018-05-05T03:54:17.737Z,0.00
2018-05-05T03:55:17.722Z,0.00
2018-05-05T03:56:17.646Z,0.00
2018-05-05T03:57:17.658Z,0.00
2018-05-05T03:58:17.554Z,0.00
2018-05-05T03:59:17.514Z,0.00
2018-05-05T04:00:17.470Z,0.00
2018-05-05T04:01:17.436Z,0.00
2018-05-05T04:02:17.368Z,0.00
2018-05-05T04:03:17.352Z,0.00
2018-05-05T04:04:17.296Z,0.00
2018-05-05T04:05:17.251Z,0.00
2018-05-05T04:06:17.213Z,0.00
2018-05-05T04:07:17.188Z,0.00
2018-05-05T04:08:17.144Z,0.00
2018-05-05T04:09:17.089Z,0.00
2018-05-05T04:10:17.031Z,0.00
2018-05-05T04:11:16.995Z,0.00
2018-05-05T04:12:16.955Z,0.00
2018-05-05T04:13:16.912Z,0.00
2018-05-05T04:14:16.862Z,0.00
2018-05-05T04:15:16.818Z,0.00
2018-05-05T04:16:16.784Z,0.00
2018-05-05T04:17:16.724Z,0.00
2018-05-05T04:18:16.679Z,0.00
2018-05-05T04:19:16.657Z,0.00
2018-05-05T04:20:16.577Z,0.00
2018-05-05T04:21:16.540Z,0.00
2018-05-05T04:22:16.501Z,0.00
2018-05-05T04:23:16.469Z,0.00
2018-05-05T04:24:16.441Z,0.00
2018-05-05T04:25:16.402Z,0.00
2018-05-05T04:26:16.312Z,0.00
2018-05-05T04:27:16.279Z,0.00
2018-05-05T04:28:16.229Z,0.00
2018-05-05T04:29:16.720Z,0.00
2018-05-05T04:30:16.148Z,0.00
2018-05-05T04:31:16.092Z,0.00
2018-05-05T04:32:16.068Z,0.00
2018-05-05T04:33:16.028Z,0.00
2018-05-05T04:34:15.959Z,0.00
2018-05-05T04:35:15.922Z,0.00
2018-05-05T04:36:15.911Z,0.00
2018-05-05T04:37:15.859Z,0.00
2018-05-05T04:38:16.073Z,0.00
2018-05-05T04:39:15.735Z,0.00
2018-05-05T04:40:15.721Z,0.00
2018-05-05T04:41:15.676Z,0.00
2018-05-05T04:42:15.618Z,0.00
2018-05-05T04:43:15.583Z,0.00
2018-05-05T04:44:15.545Z,0.00
2018-05-05T04:45:15.483Z,0.00
2018-05-05T04:46:15.444Z,0.00
2018-05-05T04:47:15.396Z,0.00
2018-05-05T04:48:15.348Z,0.00
2018-05-05T04:49:15.347Z,0.00
2018-05-05T04:50:15.287Z,0.00
2018-05-05T04:51:15.209Z,0.00
2018-05-05T04:52:15.165Z,0.00
2018-05-05T04:53:15.142Z,0.00
2018-05-05T04:54:15.090Z,0.00
2018-05-05T04:55:15.050Z,0.00
2018-05-05T04:56:15.016Z,0.00
2018-05-05T04:57:15.054Z,0.00
2018-05-05T04:58:14.901Z,0.00
2018-05-05T04:59:14.884Z,0.00
2018-05-05T05:00:14.838Z,0.00
2018-05-05T05:01:14.797Z,0.00
2018-05-05T05:02:14.753Z,0.00
2018-05-05T05:03:14.695Z,0.00
2018-05-05T05:04:14.651Z,0.00
2018-05-05T05:05:14.698Z,0.00
2018-05-05T05:06:14.559Z,0.00
2018-05-05T05:07:14.522Z,0.00
2018-05-05T05:08:14.480Z,0.00
2018-05-05T05:09:14.451Z,0.00
2018-05-05T05:10:14.381Z,0.00
2018-05-05T05:11:14.355Z,0.00
2018-05-05T05:12:14.307Z,0.00
2018-05-05T05:13:14.269Z,0.00
2018-05-05T05:14:14.219Z,0.00
2018-05-05T05:15:14.161Z,0.00
2018-05-05T05:16:14.104Z,0.00
2018-05-05T05:17:14.071Z,0.00
2018-05-05T05:18:14.045Z,0.00
2018-05-05T05:19:13.997Z,0.00
2018-05-05T05:20:13.942Z,0.00
2018-05-05T05:21:13.929Z,0.00
2018-05-05T05:22:13.867Z,0.00
2018-05-05T05:23:13.808Z,0.00
2018-05-05T05:24:13.792Z,0.00
2018-05-05T05:25:13.726Z,0.00
2018-05-05T05:26:13.658Z,0.00
2018-05-05T05:27:13.638Z,0.00
2018-05-05T05:28:13.569Z,0.00
2018-05-05T05:29:13.571Z,0.00
2018-05-05T05:30:13.500Z,0.00
2018-05-05T05:31:13.481Z,0.00
2018-05-05T05:32:13.438Z,0.00
2018-05-05T05:33:13.364Z,0.00
2018-05-05T05:34:13.349Z,0.00
2018-05-05T05:35:13.269Z,0.00
2018-05-05T05:36:13.244Z,0.00
2018-05-05T05:37:13.200Z,0.00
2018-05-05T05:38:13.157Z,0.00
2018-05-05T05:39:13.116Z,0.00
2018-05-05T05:40:13.066Z,0.00
2018-05-05T05:41:13.013Z,0.00
2018-05-05T05:42:12.969Z,0.00
2018-05-05T05:43:12.924Z,0.00
2018-05-05T05:44:12.890Z,0.00
2018-05-05T05:45:12.847Z,0.00
2018-05-05T05:46:12.806Z,0.00
2018-05-05T05:47:12.744Z,0.00
2018-05-05T05:48:12.689Z,0.00
2018-05-05T05:49:12.645Z,0.00
2018-05-05T05:50:12.602Z,0.00
2018-05-05T05:51:12.557Z,0.00
2018-05-05T05:52:12.562Z,0.00
2018-05-05T05:53:12.483Z,0.00
2018-05-05T05:54:12.449Z,0.00
2018-05-05T05:55:12.396Z,0.00
2018-05-05T05:56:12.382Z,0.00
2018-05-05T05:57:12.318Z,0.00
2018-05-05T05:58:12.271Z,0.00
2018-05-05T05:59:12.222Z,0.00
2018-05-05T06:00:12.207Z,0.00
2018-05-05T06:01:12.156Z,0.00
2018-05-05T06:02:12.099Z,0.00
2018-05-05T06:03:12.048Z,0.00
2018-05-05T06:04:12.008Z,0.00
2018-05-05T06:05:11.938Z,0.00
2018-05-05T06:06:11.920Z,0.00
2018-05-05T06:07:11.876Z,0.00
2018-05-05T06:08:11.831Z,0.00
2018-05-05T06:09:11.773Z,0.00
2018-05-05T06:10:11.733Z,0.00
2018-05-05T06:11:11.711Z,0.00
2018-05-05T06:12:11.651Z,0.00
2018-05-05T06:13:11.581Z,0.00
2018-05-05T06:14:11.552Z,0.00
2018-05-05T06:15:11.513Z,0.00
2018-05-05T06:16:11.461Z,0.00
2018-05-05T06:17:11.448Z,0.00
2018-05-05T06:18:11.403Z,0.00
2018-05-05T06:19:11.343Z,0.00
2018-05-05T06:20:11.313Z,0.00
2018-05-05T06:21:11.230Z,0.00
2018-05-05T06:22:11.200Z,0.00
2018-05-05T06:23:11.166Z,0.00
2018-05-05T06:24:11.118Z,0.00
2018-05-05T06:25:11.074Z,0.00
2018-05-05T06:26:11.033Z,0.00
2018-05-05T06:27:11.020Z,0.00
2018-05-05T06:28:10.945Z,0.00
2018-05-05T06:29:10.903Z,0.00
2018-05-05T06:30:10.858Z,0.00
2018-05-05T06:31:10.788Z,0.00
2018-05-05T06:32:10.753Z,0.00
2018-05-05T06:33:10.705Z,0.00
2018-05-05T06:34:10.681Z,0.00
2018-05-05T06:35:10.635Z,0.00
2018-05-05T06:36:10.593Z,0.00
2018-05-05T06:37:10.546Z,0.00
2018-05-05T06:38:10.476Z,0.00
2018-05-05T06:39:10.460Z,0.00
2018-05-05T06:40:10.402Z,0.00
2018-05-05T06:41:10.349Z,0.00
2018-05-05T06:42:10.313Z,0.00
2018-05-05T06:43:10.265Z,0.00
2018-05-05T06:44:10.225Z,0.00
2018-05-05T06:45:10.224Z,0.00
2018-05-05T06:46:10.169Z,0.00
2018-05-05T06:47:10.118Z,0.00
2018-05-05T06:48:10.068Z,0.00
2018-05-05T06:49:10.012Z,0.00
2018-05-05T06:50:09.955Z,0.00
2018-05-05T06:51:09.908Z,0.00
2018-05-05T06:52:09.862Z,0.00
2018-05-05T06:53:09.825Z,0.00
2018-05-05T06:54:09.810Z,0.00
2018-05-05T06:55:09.746Z,0.00
2018-05-05T06:56:09.675Z,0.00
2018-05-05T06:57:09.675Z,0.00
2018-05-05T06:58:09.629Z,0.00
2018-05-05T06:59:09.594Z,0.00
2018-05-05T07:00:09.525Z,0.00
2018-05-05T07:01:09.484Z,0.00
2018-05-05T07:02:09.424Z,0.00
2018-05-05T07:03:09.385Z,0.00
2018-05-05T07:04:09.345Z,0.00
2018-05-05T07:05:09.282Z,0.00
2018-05-05T07:06:09.247Z,0.00
2018-05-05T07:07:09.230Z,0.00
2018-05-05T07:08:09.177Z,0.00
2018-05-05T07:09:09.213Z,0.00
2018-05-05T07:10:09.067Z,0.00
2018-05-05T07:11:09.027Z,0.00
2018-05-05T07:12:08.977Z,0.00
2018-05-05T07:13:08.924Z,0.00
2018-05-05T07:14:08.883Z,0.00
2018-05-05T07:15:08.840Z,0.00
2018-05-05T07:16:08.809Z,0.00
2018-05-05T07:17:08.769Z,0.00
2018-05-05T07:18:08.721Z,0.00
2018-05-05T07:19:08.688Z,0.00
2018-05-05T07:20:08.639Z,0.00
2018-05-05T07:21:08.589Z,0.00
2018-05-05T07:22:08.529Z,0.00
2018-05-05T07:23:08.536Z,0.00
2018-05-05T07:24:08.463Z,0.00
2018-05-05T07:25:08.426Z,0.00
2018-05-05T07:26:08.387Z,0.00
2018-05-05T07:27:08.335Z,0.00
2018-05-05T07:28:08.265Z,0.00
2018-05-05T07:29:08.253Z,0.00
2018-05-05T07:30:08.200Z,0.00
2018-05-05T07:31:08.141Z,0.00
2018-05-05T07:32:08.127Z,0.00
2018-05-05T07:33:08.064Z,0.00
2018-05-05T07:34:08.037Z,0.00
2018-05-05T07:35:07.966Z,0.00
2018-05-05T07:36:07.928Z,0.00
2018-05-05T07:37:07.882Z,0.00
2018-05-05T07:38:07.817Z,0.00
2018-05-05T07:39:07.791Z,0.00
2018-05-05T07:40:07.766Z,0.00
2018-05-05T07:41:07.700Z,0.00
2018-05-05T07:42:07.651Z,0.00
2018-05-05T07:43:07.625Z,0.00
2018-05-05T07:44:07.557Z,0.00
2018-05-05T07:45:08.050Z,0.00
2018-05-05T07:46:07.495Z,0.00
2018-05-05T07:47:07.434Z,0.00
2018-05-05T07:48:07.403Z,0.00
2018-05-05T07:49:07.346Z,0.00
2018-05-05T07:50:07.294Z,0.00
2018-05-05T07:51:07.274Z,0.00
2018-05-05T07:52:07.226Z,0.00
2018-05-05T07:53:07.202Z,0.00
2018-05-05T07:54:07.137Z,0.00
2018-05-05T07:55:07.066Z,0.00
2018-05-05T07:56:07.027Z,0.00
2018-05-05T07:57:06.979Z,0.00
2018-05-05T07:58:06.933Z,0.00
2018-05-05T07:59:06.965Z,0.00
2018-05-05T08:00:06.866Z,0.00
2018-05-05T08:01:06.824Z,0.00
2018-05-05T08:02:06.750Z,0.00
2018-05-05T08:03:06.716Z,0.00
2018-05-05T08:04:06.691Z,0.00
2018-05-05T08:05:06.621Z,0.00
2018-05-05T08:06:06.623Z,0.00
2018-05-05T08:07:06.579Z,0.00
2018-05-05T08:08:06.489Z,0.00
2018-05-05T08:09:06.472Z,0.00
2018-05-05T08:10:06.401Z,0.00
2018-05-05T08:11:06.361Z,0.00
2018-05-05T08:12:06.338Z,0.00
2018-05-05T08:13:06.279Z,0.00
2018-05-05T08:14:06.250Z,0.00
2018-05-05T08:15:06.183Z,0.00
2018-05-05T08:16:06.178Z,0.00
2018-05-05T08:17:06.101Z,0.00
2018-05-05T08:18:06.066Z,0.00
2018-05-05T08:19:05.999Z,0.00
2018-05-05T08:20:05.962Z,0.00
2018-05-05T08:21:05.945Z,0.00
2018-05-05T08:22:05.894Z,0.00
2018-05-05T08:23:05.830Z,0.00
2018-05-05T08:24:05.799Z,0.00
2018-05-05T08:25:05.744Z,0.00
2018-05-05T08:26:05.722Z,0.00
2018-05-05T08:27:05.666Z,0.00
2018-05-05T08:28:05.627Z,0.00
2018-05-05T08:29:05.559Z,0.00
2018-05-05T08:30:05.544Z,0.00
2018-05-05T08:31:05.480Z,0.00
2018-05-05T08:32:05.449Z,0.00
2018-05-05T08:33:05.384Z,0.00
2018-05-05T08:34:05.360Z,0.00
2018-05-05T08:35:05.313Z,0.00
2018-05-05T08:36:05.243Z,0.00
2018-05-05T08:37:05.198Z,0.00
2018-05-05T08:38:05.175Z,0.00
2018-05-05T08:39:05.137Z,0.00
2018-05-05T08:40:05.068Z,0.00
2018-05-05T08:41:05.027Z,0.00
2018-05-05T08:42:05.020Z,0.00
2018-05-05T08:43:04.939Z,0.00
2018-05-05T08:44:04.886Z,0.00
2018-05-05T08:45:04.854Z,0.00
2018-05-05T08:46:04.805Z,0.00
2018-05-05T08:47:04.751Z,0.00
2018-05-05T08:48:04.726Z,0.00
2018-05-05T08:49:04.705Z,0.00
2018-05-05T08:50:04.640Z,0.00
2018-05-05T08:51:04.582Z,0.00
2018-05-05T08:52:04.538Z,0.00
2018-05-05T08:53:04.511Z,0.00
2018-05-05T08:54:04.459Z,0.00
2018-05-05T08:55:04.446Z,0.00
2018-05-05T08:56:04.381Z,0.00
2018-05-05T08:57:04.314Z,0.00
2018-05-05T08:58:04.274Z,0.00
2018-05-05T08:59:04.261Z,0.00
2018-05-05T09:00:04.181Z,0.00
2018-05-05T09:01:04.152Z,0.00
2018-05-05T09:02:04.132Z,0.00
2018-05-05T09:03:04.054Z,0.00
2018-05-05T09:04:03.999Z,0.00
2018-05-05T09:05:03.959Z,0.00
2018-05-05T09:06:04.003Z,0.00
2018-05-05T09:07:03.857Z,0.00
2018-05-05T09:08:03.840Z,0.00
2018-05-05T09:09:03.769Z,0.00
2018-05-05T09:10:03.752Z,0.00
2018-05-05T09:11:03.701Z,0.00
2018-05-05T09:12:03.677Z,0.00
2018-05-05T09:13:03.604Z,0.00
2018-05-05T09:14:03.564Z,0.00
2018-05-05T09:15:03.522Z,0.00
2018-05-05T09:16:03.487Z,0.00
2018-05-05T09:17:03.423Z,0.00
2018-05-05T09:18:03.412Z,0.00
2018-05-05T09:19:03.347Z,0.00
2018-05-05T09:20:03.304Z,0.00
2018-05-05T09:21:03.785Z,0.00
2018-05-05T09:22:03.211Z,0.00
2018-05-05T09:23:03.182Z,0.00
2018-05-05T09:24:03.123Z,0.00
2018-05-05T09:25:03.067Z,0.00
2018-05-05T09:26:03.039Z,0.00
2018-05-05T09:27:02.982Z,0.00
2018-05-05T09:28:02.939Z,0.00
2018-05-05T09:29:02.896Z,0.00
2018-05-05T09:30:02.880Z,0.00
2018-05-05T09:31:02.808Z,5.63
2018-05-05T09:32:03.301Z,5.63
2018-05-05T09:33:02.721Z,5.63
2018-05-05T09:34:02.731Z,5.63
2018-05-05T09:35:02.606Z,5.63
2018-05-05T09:36:02.576Z,5.63
2018-05-05T09:37:02.556Z,11.25
2018-05-05T09:38:02.507Z,11.25
2018-05-05T09:39:02.480Z,11.25
2018-05-05T09:40:02.396Z,11.25
2018-05-05T09:41:02.336Z,11.25
2018-05-05T09:42:02.332Z,16.88
2018-05-05T09:43:02.370Z,16.88
2018-05-05T09:44:02.221Z,16.88
2018-05-05T09:45:02.186Z,16.88
2018-05-05T09:46:02.165Z,22.50
2018-05-05T09:47:02.083Z,22.50
2018-05-05T09:48:02.049Z,22.50
2018-05-05T09:49:02.020Z,33.75
2018-05-05T09:50:01.930Z,45.00
2018-05-05T09:51:01.899Z,61.88
2018-05-05T09:52:01.859Z,73.13
2018-05-05T09:53:01.827Z,84.38
2018-05-05T09:54:01.753Z,84.38
2018-05-05T09:55:01.757Z,78.75
2018-05-05T09:56:01.676Z,84.38
2018-05-05T09:57:01.631Z,78.75
2018-05-05T09:58:01.588Z,56.25
2018-05-05T09:59:01.553Z,73.13
2018-05-05T10:00:01.505Z,90.00
2018-05-05T10:01:01.495Z,112.50
2018-05-05T10:02:01.418Z,106.88
2018-05-05T10:03:01.387Z,73.13
2018-05-05T10:04:01.335Z,67.50
2018-05-05T10:05:01.280Z,73.13
2018-05-05T10:06:01.252Z,56.25
2018-05-05T10:07:01.214Z,61.88
2018-05-05T10:08:01.177Z,67.50
2018-05-05T10:09:01.191Z,61.88
2018-05-05T10:10:01.080Z,73.13
2018-05-05T10:11:01.020Z,101.25
2018-05-05T10:12:01.005Z,129.38
2018-05-05T10:13:00.936Z,129.38
2018-05-05T10:14:00.895Z,112.50
2018-05-05T10:15:00.842Z,90.00
2018-05-05T10:16:00.827Z,78.75
2018-05-05T10:17:00.755Z,90.00
2018-05-05T10:18:00.713Z,135.00
2018-05-05T10:19:00.680Z,185.63
2018-05-05T10:20:00.663Z,157.50
2018-05-05T10:21:00.597Z,118.13
2018-05-05T10:22:00.550Z,101.25
2018-05-05T10:23:00.492Z,101.25
2018-05-05T10:24:00.438Z,129.38
2018-05-05T10:25:00.419Z,118.13
2018-05-05T10:26:00.364Z,106.88
2018-05-05T10:27:00.334Z,112.50
2018-05-05T10:28:00.264Z,191.25
2018-05-05T10:29:00.269Z,405.00
2018-05-05T10:30:00.194Z,393.75
2018-05-05T10:31:00.153Z,230.63
2018-05-05T10:32:00.224Z,219.38
2018-05-05T10:33:00.066Z,281.25
2018-05-05T10:34:00.040Z,427.50
2018-05-05T10:34:59.987Z,596.25
2018-05-05T10:35:59.941Z,624.38
2018-05-05T10:36:59.885Z,630.00
2018-05-05T10:37:59.842Z,320.63
2018-05-05T10:38:59.840Z,140.63
2018-05-05T10:39:59.775Z,123.75
2018-05-05T10:40:59.727Z,118.13
2018-05-05T10:41:59.712Z,112.50
2018-05-05T10:42:59.661Z,112.50
2018-05-05T10:43:59.596Z,106.88
2018-05-05T10:44:59.564Z,95.63
2018-05-05T10:45:59.522Z,84.38
2018-05-05T10:46:59.514Z,73.13
2018-05-05T10:47:59.443Z,67.50
2018-05-05T10:48:59.375Z,67.50
2018-05-05T10:49:59.358Z,67.50
2018-05-05T10:50:59.294Z,61.88
2018-05-05T10:51:59.275Z,67.50
2018-05-05T10:52:59.233Z,73.13
2018-05-05T10:53:59.174Z,73.13
2018-05-05T10:54:59.150Z,78.75
2018-05-05T10:55:59.109Z,90.00
2018-05-05T10:56:59.079Z,90.00
2018-05-05T10:57:59.010Z,123.75
2018-05-05T10:58:58.981Z,888.75
2018-05-05T10:59:58.923Z,883.13
2018-05-05T11:00:58.884Z,826.88
2018-05-05T11:01:58.855Z,849.38
2018-05-05T11:02:58.787Z,810.00
2018-05-05T11:03:58.768Z,506.25
2018-05-05T11:04:58.735Z,213.75
2018-05-05T11:05:58.681Z,196.88
2018-05-05T11:06:58.633Z,196.88
2018-05-05T11:07:58.608Z,191.25
2018-05-05T11:08:58.567Z,185.63
2018-05-05T11:09:58.530Z,185.63
2018-05-05T11:10:58.468Z,180.00
2018-05-05T11:11:58.459Z,180.00
2018-05-05T11:12:58.387Z,180.00
2018-05-05T11:13:58.336Z,168.75
2018-05-05T11:14:58.320Z,168.75
2018-05-05T11:15:58.282Z,163.13
2018-05-05T11:16:58.239Z,157.50
2018-05-05T11:17:58.170Z,151.88
2018-05-05T11:18:58.156Z,151.88
2018-05-05T11:19:58.121Z,146.25
2018-05-05T11:20:58.072Z,146.25
2018-05-05T11:21:58.019Z,146.25
2018-05-05T11:22:57.990Z,140.63
2018-05-05T11:23:57.936Z,140.63
2018-05-05T11:24:57.912Z,140.63
2018-05-05T11:25:57.878Z,135.00
2018-05-05T11:26:57.823Z,135.00
2018-05-05T11:27:57.772Z,135.00
2018-05-05T11:28:57.747Z,135.00
2018-05-05T11:29:57.762Z,135.00
2018-05-05T11:30:57.650Z,135.00
2018-05-05T11:31:57.608Z,135.00
2018-05-05T11:32:57.555Z,135.00
2018-05-05T11:33:57.526Z,135.00
2018-05-05T11:34:57.513Z,135.00
2018-05-05T11:35:57.434Z,135.00
2018-05-05T11:36:57.396Z,135.00
2018-05-05T11:37:57.377Z,135.00
2018-05-05T11:38:57.325Z,135.00
2018-05-05T11:39:57.280Z,135.00
2018-05-05T11:40:57.225Z,135.00
2018-05-05T11:41:57.206Z,135.00
2018-05-05T11:42:57.150Z,135.00
2018-05-05T11:43:57.136Z,135.00
2018-05-05T11:44:57.167Z,135.00
2018-05-05T11:45:57.016Z,135.00
2018-05-05T11:46:56.961Z,135.00
2018-05-05T11:47:56.932Z,135.00
2018-05-05T11:48:56.902Z,135.00
2018-05-05T11:49:56.842Z,129.38
2018-05-05T11:50:56.817Z,135.00
2018-05-05T11:51:56.751Z,135.00
2018-05-05T11:52:56.723Z,135.00
2018-05-05T11:53:56.688Z,129.38
2018-05-05T11:54:56.656Z,129.38
2018-05-05T11:55:56.589Z,129.38
2018-05-05T11:56:56.567Z,129.38
2018-05-05T11:57:56.523Z,129.38
2018-05-05T11:58:56.496Z,129.38
2018-05-05T11:59:56.435Z,129.38
2018-05-05T12:00:56.385Z,129.38
2018-05-05T12:01:56.338Z,129.38
2018-05-05T12:02:56.316Z,129.38
2018-05-05T12:03:56.261Z,129.38
2018-05-05T12:04:56.206Z,129.38
2018-05-05T12:05:56.165Z,129.38
2018-05-05T12:06:56.121Z,129.38
2018-05-05T12:07:56.111Z,129.38
2018-05-05T12:08:56.070Z,129.38
2018-05-05T12:09:56.023Z,129.38
2018-05-05T12:10:55.954Z,129.38
2018-05-05T12:11:55.927Z,129.38
2018-05-05T12:12:55.869Z,129.38
2018-05-05T12:13:55.850Z,129.38
2018-05-05T12:14:55.806Z,129.38
2018-05-05T12:15:55.752Z,129.38
2018-05-05T12:16:55.730Z,129.38
2018-05-05T12:17:55.684Z,129.38
2018-05-05T12:18:55.634Z,129.38
2018-05-05T12:19:55.600Z,129.38
2018-05-05T12:20:55.550Z,129.38
2018-05-05T12:21:55.514Z,129.38
2018-05-05T12:22:55.469Z,129.38
2018-05-05T12:23:55.433Z,129.38
2018-05-05T12:24:55.391Z,129.38
2018-05-05T12:25:55.367Z,129.38
2018-05-05T12:26:55.297Z,129.38
2018-05-05T12:27:55.258Z,129.38
2018-05-05T12:28:55.202Z,129.38
2018-05-05T12:29:55.241Z,129.38
2018-05-05T12:30:55.133Z,129.38
2018-05-05T12:31:55.104Z,123.75
2018-05-05T12:32:55.060Z,129.38
2018-05-05T12:33:55.033Z,123.75
2018-05-05T12:34:54.948Z,123.75
2018-05-05T12:35:54.909Z,123.75
2018-05-05T12:36:54.894Z,129.38
2018-05-05T12:37:54.866Z,123.75
2018-05-05T12:38:54.799Z,123.75
2018-05-05T12:39:54.757Z,123.75
2018-05-05T12:40:54.718Z,123.75
2018-05-05T12:41:54.700Z,123.75
2018-05-05T12:42:54.618Z,123.75
2018-05-05T12:43:54.618Z,123.75
2018-05-05T12:44:54.547Z,123.75
2018-05-05T12:45:54.509Z,123.75
2018-05-05T12:46:54.480Z,123.75
2018-05-05T12:47:54.434Z,123.75
2018-05-05T12:48:54.401Z,123.75
2018-05-05T12:49:54.427Z,123.75
2018-05-05T12:50:54.311Z,123.75
2018-05-05T12:51:54.272Z,123.75
2018-05-05T12:52:54.206Z,123.75
2018-05-05T12:53:54.192Z,123.75
2018-05-05T12:54:54.136Z,123.75
2018-05-05T12:55:54.096Z,123.75
2018-05-05T12:56:54.095Z,123.75
2018-05-05T12:57:54.030Z,123.75
2018-05-05T12:58:53.983Z,123.75
2018-05-05T12:59:53.940Z,123.75
2018-05-05T13:00:53.886Z,123.75
2018-05-05T13:01:53.861Z,123.75
2018-05-05T13:02:53.798Z,123.75
2018-05-05T13:03:53.764Z,123.75
2018-05-05T13:04:53.734Z,123.75
2018-05-05T13:05:53.695Z,123.75